Aviation Digital Data Service (ADDS)

Output produced by METARs form (1353 UTC 23 January 2019)
found at http://www.aviationweather.gov/metar/data/
 
Forecast for: COR
Text: TAF COR EYVI 231112Z 2312/2412 VRB05KT 7000 SCT015
Forecast period: 1200 to 2000 UTC 23 January 2019
Forecast type: FROM: standard forecast or significant change
Winds: variable direction winds at 6 MPH (5 knots; 2.6 m/s)
Visibility: 4 miles (7 km)
Ceiling: at least 12,000 feet AGL
Clouds: scattered clouds at 1500 feet AGL
Weather: no significant weather forecast for this period
Text: BECMG 2320/2321 BKN005
Forecast period: 2000 UTC 23 January 2019 to 1200 UTC 24 January 2019
Forecast type: BECOMING: Conditions expected to become as follows by 2100 UTC 23 January 2019
Winds: variable direction winds at 6 MPH (5 knots; 2.6 m/s)
Visibility: 4 miles (7 km)
Ceiling: 500 feet AGL
Clouds: broken clouds at 500 feet AGL
Weather: no significant weather forecast for this period